sensor_id;sensor_type;location;lat;lon;timestamp;P1;durP1;ratioP1;P2;durP2;ratioP2
19173;SDS011;9719;49.322;8.536;2022-10-28T00:04:16;6.25;;;3.88;;
19173;SDS011;9719;49.322;8.536;2022-10-28T00:09:18;5.63;;;3.53;;
19173;SDS011;9719;49.322;8.536;2022-10-28T00:14:20;11.02;;;5.38;;
19173;SDS011;9719;49.322;8.536;2022-10-28T00:19:24;6.07;;;3.55;;
19173;SDS011;9719;49.322;8.536;2022-10-28T00:24:26;4.82;;;3.47;;
19173;SDS011;9719;49.322;8.536;2022-10-28T00:29:28;4.20;;;3.38;;
19173;SDS011;9719;49.322;8.536;2022-10-28T00:34:32;5.47;;;3.70;;
19173;SDS011;9719;49.322;8.536;2022-10-28T00:39:34;5.35;;;3.28;;
19173;SDS011;9719;49.322;8.536;2022-10-28T00:44:40;5.55;;;3.33;;
19173;SDS011;9719;49.322;8.536;2022-10-28T00:49:51;4.93;;;3.25;;
19173;SDS011;9719;49.322;8.536;2022-10-28T00:54:57;7.35;;;3.67;;
19173;SDS011;9719;49.322;8.536;2022-10-28T01:00:02;8.43;;;3.33;;
19173;SDS011;9719;49.322;8.536;2022-10-28T01:05:08;3.88;;;2.83;;
19173;SDS011;9719;49.322;8.536;2022-10-28T01:10:12;5.60;;;3.22;;
19173;SDS011;9719;49.322;8.536;2022-10-28T01:15:18;3.58;;;3.17;;
19173;SDS011;9719;49.322;8.536;2022-10-28T01:20:43;5.38;;;3.55;;
19173;SDS011;9719;49.322;8.536;2022-10-28T01:26:28;6.30;;;2.65;;
19173;SDS011;9719;49.322;8.536;2022-10-28T01:31:42;3.03;;;2.42;;
19173;SDS011;9719;49.322;8.536;2022-10-28T01:36:49;5.03;;;2.80;;
19173;SDS011;9719;49.322;8.536;2022-10-28T01:41:59;3.92;;;3.17;;
19173;SDS011;9719;49.322;8.536;2022-10-28T01:47:10;7.93;;;3.10;;
19173;SDS011;9719;49.322;8.536;2022-10-28T01:52:17;5.18;;;2.30;;
19173;SDS011;9719;49.322;8.536;2022-10-28T01:57:23;4.35;;;3.30;;
19173;SDS011;9719;49.322;8.536;2022-10-28T02:02:30;4.57;;;2.95;;
19173;SDS011;9719;49.322;8.536;2022-10-28T02:07:34;7.38;;;3.25;;
19173;SDS011;9719;49.322;8.536;2022-10-28T02:12:38;12.98;;;3.78;;
19173;SDS011;9719;49.322;8.536;2022-10-28T02:17:46;4.30;;;2.80;;
19173;SDS011;9719;49.322;8.536;2022-10-28T02:22:56;5.68;;;2.50;;
19173;SDS011;9719;49.322;8.536;2022-10-28T02:28:08;10.25;;;2.97;;
19173;SDS011;9719;49.322;8.536;2022-10-28T02:33:16;4.65;;;3.30;;
19173;SDS011;9719;49.322;8.536;2022-10-28T02:38:21;5.90;;;2.80;;
19173;SDS011;9719;49.322;8.536;2022-10-28T02:43:26;4.15;;;2.92;;
19173;SDS011;9719;49.322;8.536;2022-10-28T02:48:35;5.32;;;2.70;;
19173;SDS011;9719;49.322;8.536;2022-10-28T02:53:44;5.43;;;2.53;;
19173;SDS011;9719;49.322;8.536;2022-10-28T02:58:53;4.60;;;2.72;;
19173;SDS011;9719;49.322;8.536;2022-10-28T03:03:56;3.95;;;3.13;;
19173;SDS011;9719;49.322;8.536;2022-10-28T03:08:58;7.57;;;2.95;;
19173;SDS011;9719;49.322;8.536;2022-10-28T03:14:00;10.60;;;4.18;;
19173;SDS011;9719;49.322;8.536;2022-10-28T03:19:03;5.50;;;2.53;;
19173;SDS011;9719;49.322;8.536;2022-10-28T03:24:05;4.05;;;2.63;;
19173;SDS011;9719;49.322;8.536;2022-10-28T03:29:07;6.03;;;3.17;;
19173;SDS011;9719;49.322;8.536;2022-10-28T03:34:11;4.53;;;2.30;;
19173;SDS011;9719;49.322;8.536;2022-10-28T03:39:13;5.05;;;3.38;;
19173;SDS011;9719;49.322;8.536;2022-10-28T03:44:15;6.88;;;2.83;;
19173;SDS011;9719;49.322;8.536;2022-10-28T03:49:18;7.63;;;2.55;;
19173;SDS011;9719;49.322;8.536;2022-10-28T03:54:20;5.63;;;2.97;;
19173;SDS011;9719;49.322;8.536;2022-10-28T03:59:22;6.72;;;2.97;;
19173;SDS011;9719;49.322;8.536;2022-10-28T04:04:25;3.95;;;2.58;;
19173;SDS011;9719;49.322;8.536;2022-10-28T04:09:27;6.47;;;3.25;;
19173;SDS011;9719;49.322;8.536;2022-10-28T04:14:29;6.93;;;3.40;;
19173;SDS011;9719;49.322;8.536;2022-10-28T04:19:32;7.05;;;3.15;;
19173;SDS011;9719;49.322;8.536;2022-10-28T04:24:34;3.92;;;2.40;;
19173;SDS011;9719;49.322;8.536;2022-10-28T04:29:36;2.97;;;2.67;;
19173;SDS011;9719;49.322;8.536;2022-10-28T04:34:39;6.65;;;2.72;;
19173;SDS011;9719;49.322;8.536;2022-10-28T04:39:41;3.78;;;2.63;;
19173;SDS011;9719;49.322;8.536;2022-10-28T04:44:43;4.43;;;2.75;;
19173;SDS011;9719;49.322;8.536;2022-10-28T04:49:47;8.93;;;3.25;;
19173;SDS011;9719;49.322;8.536;2022-10-28T04:54:49;4.53;;;2.40;;
19173;SDS011;9719;49.322;8.536;2022-10-28T04:59:51;4.85;;;3.17;;
19173;SDS011;9719;49.322;8.536;2022-10-28T05:04:54;3.92;;;3.15;;
19173;SDS011;9719;49.322;8.536;2022-10-28T05:09:59;3.28;;;2.42;;
19173;SDS011;9719;49.322;8.536;2022-10-28T05:20:48;5.78;;;2.70;;
19173;SDS011;9719;49.322;8.536;2022-10-28T05:25:53;7.55;;;3.60;;
19173;SDS011;9719;49.322;8.536;2022-10-28T05:30:55;6.13;;;2.83;;
19173;SDS011;9719;49.322;8.536;2022-10-28T05:35:59;5.15;;;3.00;;
19173;SDS011;9719;49.322;8.536;2022-10-28T05:41:01;5.30;;;3.53;;
19173;SDS011;9719;49.322;8.536;2022-10-28T05:46:03;5.85;;;2.42;;
19173;SDS011;9719;49.322;8.536;2022-10-28T05:51:06;7.13;;;2.78;;
19173;SDS011;9719;49.322;8.536;2022-10-28T05:56:09;3.33;;;3.03;;
19173;SDS011;9719;49.322;8.536;2022-10-28T06:01:11;3.95;;;2.50;;
19173;SDS011;9719;49.322;8.536;2022-10-28T06:06:14;4.38;;;2.53;;
19173;SDS011;9719;49.322;8.536;2022-10-28T06:11:16;3.63;;;2.40;;
19173;SDS011;9719;49.322;8.536;2022-10-28T06:16:18;5.53;;;2.95;;
19173;SDS011;9719;49.322;8.536;2022-10-28T06:21:21;5.43;;;2.95;;
19173;SDS011;9719;49.322;8.536;2022-10-28T06:26:23;3.42;;;2.63;;
19173;SDS011;9719;49.322;8.536;2022-10-28T06:31:25;4.82;;;3.05;;
19173;SDS011;9719;49.322;8.536;2022-10-28T06:36:29;5.78;;;2.88;;
19173;SDS011;9719;49.322;8.536;2022-10-28T06:41:31;5.20;;;2.72;;
19173;SDS011;9719;49.322;8.536;2022-10-28T06:46:33;6.97;;;3.58;;
19173;SDS011;9719;49.322;8.536;2022-10-28T06:51:37;9.50;;;3.38;;
19173;SDS011;9719;49.322;8.536;2022-10-28T06:56:39;9.18;;;3.75;;
19173;SDS011;9719;49.322;8.536;2022-10-28T07:01:41;9.85;;;3.08;;
19173;SDS011;9719;49.322;8.536;2022-10-28T07:06:44;7.18;;;3.30;;
19173;SDS011;9719;49.322;8.536;2022-10-28T07:11:47;7.00;;;3.20;;
19173;SDS011;9719;49.322;8.536;2022-10-28T07:16:49;3.80;;;2.55;;
19173;SDS011;9719;49.322;8.536;2022-10-28T07:21:52;9.77;;;4.25;;
19173;SDS011;9719;49.322;8.536;2022-10-28T07:26:54;3.72;;;2.60;;
19173;SDS011;9719;49.322;8.536;2022-10-28T07:31:56;4.60;;;2.67;;
19173;SDS011;9719;49.322;8.536;2022-10-28T07:37:00;6.07;;;3.00;;
19173;SDS011;9719;49.322;8.536;2022-10-28T07:42:03;4.13;;;2.58;;
19173;SDS011;9719;49.322;8.536;2022-10-28T07:47:05;3.90;;;2.55;;
19173;SDS011;9719;49.322;8.536;2022-10-28T07:52:09;7.18;;;2.90;;
19173;SDS011;9719;49.322;8.536;2022-10-28T07:57:11;10.63;;;3.78;;
19173;SDS011;9719;49.322;8.536;2022-10-28T08:02:17;11.27;;;4.07;;
19173;SDS011;9719;49.322;8.536;2022-10-28T08:08:01;7.53;;;3.40;;
19173;SDS011;9719;49.322;8.536;2022-10-28T08:13:03;4.95;;;2.85;;
19173;SDS011;9719;49.322;8.536;2022-10-28T08:18:06;4.90;;;3.00;;
19173;SDS011;9719;49.322;8.536;2022-10-28T08:23:09;4.57;;;3.17;;
19173;SDS011;9719;49.322;8.536;2022-10-28T08:28:11;4.13;;;2.60;;
19173;SDS011;9719;49.322;8.536;2022-10-28T08:33:13;3.88;;;2.47;;
19173;SDS011;9719;49.322;8.536;2022-10-28T08:38:17;2.53;;;2.25;;
19173;SDS011;9719;49.322;8.536;2022-10-28T08:43:21;6.30;;;2.90;;
19173;SDS011;9719;49.322;8.536;2022-10-28T08:48:31;6.50;;;3.22;;
19173;SDS011;9719;49.322;8.536;2022-10-28T08:53:38;4.18;;;2.75;;
19173;SDS011;9719;49.322;8.536;2022-10-28T08:58:44;8.32;;;2.70;;
19173;SDS011;9719;49.322;8.536;2022-10-28T09:03:49;6.68;;;2.53;;
19173;SDS011;9719;49.322;8.536;2022-10-28T09:08:54;4.45;;;3.20;;
19173;SDS011;9719;49.322;8.536;2022-10-28T09:14:02;4.97;;;3.08;;
19173;SDS011;9719;49.322;8.536;2022-10-28T09:19:13;3.85;;;2.92;;
19173;SDS011;9719;49.322;8.536;2022-10-28T09:24:26;4.35;;;3.10;;
19173;SDS011;9719;49.322;8.536;2022-10-28T09:29:38;4.28;;;2.33;;
19173;SDS011;9719;49.322;8.536;2022-10-28T09:34:48;11.05;;;3.50;;
19173;SDS011;9719;49.322;8.536;2022-10-28T09:39:59;6.00;;;3.45;;
19173;SDS011;9719;49.322;8.536;2022-10-28T09:45:05;7.05;;;2.70;;
19173;SDS011;9719;49.322;8.536;2022-10-28T09:50:13;4.45;;;2.22;;
19173;SDS011;9719;49.322;8.536;2022-10-28T09:55:19;3.10;;;2.17;;
19173;SDS011;9719;49.322;8.536;2022-10-28T10:00:22;3.33;;;2.10;;
19173;SDS011;9719;49.322;8.536;2022-10-28T10:05:25;8.32;;;3.28;;
19173;SDS011;9719;49.322;8.536;2022-10-28T10:10:30;5.30;;;2.00;;
19173;SDS011;9719;49.322;8.536;2022-10-28T10:15:37;6.28;;;3.13;;
19173;SDS011;9719;49.322;8.536;2022-10-28T10:20:45;3.92;;;2.50;;
19173;SDS011;9719;49.322;8.536;2022-10-28T10:25:54;3.00;;;2.38;;
19173;SDS011;9719;49.322;8.536;2022-10-28T10:30:59;5.10;;;2.47;;
19173;SDS011;9719;49.322;8.536;2022-10-28T10:36:03;6.50;;;3.53;;
19173;SDS011;9719;49.322;8.536;2022-10-28T10:41:17;4.75;;;2.33;;
19173;SDS011;9719;49.322;8.536;2022-10-28T10:46:34;5.28;;;2.10;;
19173;SDS011;9719;49.322;8.536;2022-10-28T10:51:36;3.42;;;2.08;;
19173;SDS011;9719;49.322;8.536;2022-10-28T10:56:41;4.78;;;1.98;;
19173;SDS011;9719;49.322;8.536;2022-10-28T11:01:43;4.82;;;1.75;;
19173;SDS011;9719;49.322;8.536;2022-10-28T11:06:47;5.68;;;2.03;;
19173;SDS011;9719;49.322;8.536;2022-10-28T11:11:53;6.30;;;2.65;;
19173;SDS011;9719;49.322;8.536;2022-10-28T11:16:55;3.72;;;2.40;;
19173;SDS011;9719;49.322;8.536;2022-10-28T11:22:06;4.07;;;1.80;;
19173;SDS011;9719;49.322;8.536;2022-10-28T11:27:22;2.60;;;1.77;;
19173;SDS011;9719;49.322;8.536;2022-10-28T11:32:38;5.05;;;2.47;;
19173;SDS011;9719;49.322;8.536;2022-10-28T11:37:51;5.38;;;2.13;;
19173;SDS011;9719;49.322;8.536;2022-10-28T11:43:11;5.75;;;2.40;;
19173;SDS011;9719;49.322;8.536;2022-10-28T11:48:35;4.35;;;2.38;;
19173;SDS011;9719;49.322;8.536;2022-10-28T11:54:05;5.47;;;2.00;;
19173;SDS011;9719;49.322;8.536;2022-10-28T11:59:36;6.13;;;2.10;;
19173;SDS011;9719;49.322;8.536;2022-10-28T12:04:55;4.55;;;2.00;;
19173;SDS011;9719;49.322;8.536;2022-10-28T12:10:10;6.53;;;2.92;;
19173;SDS011;9719;49.322;8.536;2022-10-28T12:15:23;6.10;;;1.70;;
19173;SDS011;9719;49.322;8.536;2022-10-28T12:20:32;6.75;;;2.63;;
19173;SDS011;9719;49.322;8.536;2022-10-28T12:25:38;5.25;;;2.03;;
19173;SDS011;9719;49.322;8.536;2022-10-28T12:30:43;5.57;;;1.90;;
19173;SDS011;9719;49.322;8.536;2022-10-28T12:35:49;4.93;;;2.15;;
19173;SDS011;9719;49.322;8.536;2022-10-28T12:40:55;5.00;;;2.75;;
19173;SDS011;9719;49.322;8.536;2022-10-28T12:46:04;6.43;;;3.47;;
19173;SDS011;9719;49.322;8.536;2022-10-28T12:51:13;4.13;;;2.20;;
19173;SDS011;9719;49.322;8.536;2022-10-28T12:56:24;16.55;;;4.85;;
19173;SDS011;9719;49.322;8.536;2022-10-28T13:01:32;5.63;;;2.00;;
19173;SDS011;9719;49.322;8.536;2022-10-28T13:06:41;5.55;;;1.90;;
19173;SDS011;9719;49.322;8.536;2022-10-28T13:12:08;5.85;;;1.88;;
19173;SDS011;9719;49.322;8.536;2022-10-28T13:17:30;4.45;;;2.00;;
19173;SDS011;9719;49.322;8.536;2022-10-28T13:22:52;2.70;;;1.55;;
19173;SDS011;9719;49.322;8.536;2022-10-28T13:28:04;4.50;;;1.63;;
19173;SDS011;9719;49.322;8.536;2022-10-28T13:33:16;6.75;;;2.42;;
19173;SDS011;9719;49.322;8.536;2022-10-28T13:38:24;4.30;;;1.60;;
19173;SDS011;9719;49.322;8.536;2022-10-28T13:49:22;2.25;;;2.00;;
19173;SDS011;9719;49.322;8.536;2022-10-28T13:54:26;6.18;;;2.22;;
19173;SDS011;9719;49.322;8.536;2022-10-28T13:59:39;4.35;;;1.90;;
19173;SDS011;9719;49.322;8.536;2022-10-28T14:05:00;5.28;;;2.13;;
19173;SDS011;9719;49.322;8.536;2022-10-28T14:10:18;2.55;;;1.88;;
19173;SDS011;9719;49.322;8.536;2022-10-28T14:15:24;6.53;;;3.22;;
19173;SDS011;9719;49.322;8.536;2022-10-28T14:20:31;3.90;;;2.20;;
19173;SDS011;9719;49.322;8.536;2022-10-28T14:31:18;3.00;;;1.80;;
19173;SDS011;9719;49.322;8.536;2022-10-28T14:36:40;5.35;;;2.42;;
19173;SDS011;9719;49.322;8.536;2022-10-28T14:41:56;3.53;;;1.65;;
19173;SDS011;9719;49.322;8.536;2022-10-28T14:47:16;5.88;;;1.88;;
19173;SDS011;9719;49.322;8.536;2022-10-28T14:52:32;7.20;;;3.95;;
19173;SDS011;9719;49.322;8.536;2022-10-28T14:57:37;2.88;;;1.60;;
19173;SDS011;9719;49.322;8.536;2022-10-28T15:02:39;3.00;;;1.80;;
19173;SDS011;9719;49.322;8.536;2022-10-28T15:07:43;4.45;;;2.08;;
19173;SDS011;9719;49.322;8.536;2022-10-28T15:12:45;4.63;;;1.90;;
19173;SDS011;9719;49.322;8.536;2022-10-28T15:17:49;6.93;;;2.17;;
19173;SDS011;9719;49.322;8.536;2022-10-28T15:23:00;5.75;;;2.78;;
19173;SDS011;9719;49.322;8.536;2022-10-28T15:28:12;5.03;;;2.78;;
19173;SDS011;9719;49.322;8.536;2022-10-28T15:33:17;3.88;;;2.10;;
19173;SDS011;9719;49.322;8.536;2022-10-28T15:38:24;4.53;;;2.38;;
19173;SDS011;9719;49.322;8.536;2022-10-28T15:43:37;6.05;;;2.10;;
19173;SDS011;9719;49.322;8.536;2022-10-28T15:48:39;5.63;;;2.95;;
19173;SDS011;9719;49.322;8.536;2022-10-28T15:53:43;3.22;;;2.08;;
19173;SDS011;9719;49.322;8.536;2022-10-28T15:58:48;7.32;;;2.88;;
19173;SDS011;9719;49.322;8.536;2022-10-28T16:04:01;4.47;;;2.60;;
19173;SDS011;9719;49.322;8.536;2022-10-28T16:09:05;7.65;;;3.10;;
19173;SDS011;9719;49.322;8.536;2022-10-28T16:14:22;7.55;;;4.15;;
19173;SDS011;9719;49.322;8.536;2022-10-28T16:19:32;4.60;;;2.30;;
19173;SDS011;9719;49.322;8.536;2022-10-28T16:24:39;8.23;;;3.20;;
19173;SDS011;9719;49.322;8.536;2022-10-28T16:29:41;5.80;;;2.58;;
19173;SDS011;9719;49.322;8.536;2022-10-28T16:34:43;7.45;;;3.55;;
19173;SDS011;9719;49.322;8.536;2022-10-28T16:39:47;6.15;;;3.47;;
19173;SDS011;9719;49.322;8.536;2022-10-28T16:44:49;4.82;;;2.88;;
19173;SDS011;9719;49.322;8.536;2022-10-28T16:49:51;6.70;;;3.45;;
19173;SDS011;9719;49.322;8.536;2022-10-28T16:54:55;6.60;;;3.80;;
19173;SDS011;9719;49.322;8.536;2022-10-28T16:59:58;8.18;;;4.38;;
19173;SDS011;9719;49.322;8.536;2022-10-28T17:05:00;5.00;;;4.30;;
19173;SDS011;9719;49.322;8.536;2022-10-28T17:10:05;5.03;;;2.85;;
19173;SDS011;9719;49.322;8.536;2022-10-28T17:15:09;5.93;;;3.33;;
19173;SDS011;9719;49.322;8.536;2022-10-28T17:20:11;6.72;;;4.63;;
19173;SDS011;9719;49.322;8.536;2022-10-28T17:25:15;6.95;;;5.10;;
19173;SDS011;9719;49.322;8.536;2022-10-28T17:30:17;7.75;;;4.82;;
19173;SDS011;9719;49.322;8.536;2022-10-28T17:35:20;7.88;;;4.97;;
19173;SDS011;9719;49.322;8.536;2022-10-28T17:40:25;11.05;;;6.88;;
19173;SDS011;9719;49.322;8.536;2022-10-28T17:45:27;13.60;;;7.22;;
19173;SDS011;9719;49.322;8.536;2022-10-28T17:50:29;17.10;;;7.90;;
19173;SDS011;9719;49.322;8.536;2022-10-28T17:55:32;12.55;;;7.00;;
19173;SDS011;9719;49.322;8.536;2022-10-28T18:00:34;7.70;;;5.15;;
19173;SDS011;9719;49.322;8.536;2022-10-28T18:05:36;9.55;;;5.88;;
19173;SDS011;9719;49.322;8.536;2022-10-28T18:10:40;8.10;;;6.10;;
19173;SDS011;9719;49.322;8.536;2022-10-28T18:15:51;7.97;;;6.07;;
19173;SDS011;9719;49.322;8.536;2022-10-28T18:20:53;10.07;;;5.45;;
19173;SDS011;9719;49.322;8.536;2022-10-28T18:25:57;9.00;;;5.22;;
19173;SDS011;9719;49.322;8.536;2022-10-28T18:31:00;7.47;;;5.05;;
19173;SDS011;9719;49.322;8.536;2022-10-28T18:36:03;6.88;;;4.57;;
19173;SDS011;9719;49.322;8.536;2022-10-28T18:41:10;7.53;;;3.85;;
19173;SDS011;9719;49.322;8.536;2022-10-28T18:46:12;6.22;;;4.35;;
19173;SDS011;9719;49.322;8.536;2022-10-28T18:51:15;7.18;;;3.53;;
19173;SDS011;9719;49.322;8.536;2022-10-28T18:56:19;6.55;;;3.55;;
19173;SDS011;9719;49.322;8.536;2022-10-28T19:01:22;8.93;;;4.47;;
19173;SDS011;9719;49.322;8.536;2022-10-28T19:06:26;6.25;;;4.00;;
19173;SDS011;9719;49.322;8.536;2022-10-28T19:11:32;5.97;;;3.42;;
19173;SDS011;9719;49.322;8.536;2022-10-28T19:16:34;5.97;;;3.70;;
19173;SDS011;9719;49.322;8.536;2022-10-28T19:21:37;4.53;;;4.13;;
19173;SDS011;9719;49.322;8.536;2022-10-28T19:26:40;5.65;;;4.15;;
19173;SDS011;9719;49.322;8.536;2022-10-28T19:31:42;5.70;;;3.97;;
19173;SDS011;9719;49.322;8.536;2022-10-28T19:36:44;7.55;;;4.22;;
19173;SDS011;9719;49.322;8.536;2022-10-28T19:41:47;5.88;;;4.13;;
19173;SDS011;9719;49.322;8.536;2022-10-28T19:46:49;6.25;;;3.85;;
19173;SDS011;9719;49.322;8.536;2022-10-28T19:51:54;8.55;;;4.18;;
19173;SDS011;9719;49.322;8.536;2022-10-28T19:56:58;11.25;;;5.28;;
19173;SDS011;9719;49.322;8.536;2022-10-28T20:02:00;6.55;;;4.35;;
19173;SDS011;9719;49.322;8.536;2022-10-28T20:07:02;5.53;;;4.47;;
19173;SDS011;9719;49.322;8.536;2022-10-28T20:12:06;11.23;;;6.10;;
19173;SDS011;9719;49.322;8.536;2022-10-28T20:17:08;7.63;;;6.07;;
19173;SDS011;9719;49.322;8.536;2022-10-28T20:22:12;10.38;;;5.53;;
19173;SDS011;9719;49.322;8.536;2022-10-28T20:27:17;9.77;;;6.22;;
19173;SDS011;9719;49.322;8.536;2022-10-28T20:32:19;7.20;;;5.88;;
19173;SDS011;9719;49.322;8.536;2022-10-28T20:37:23;7.25;;;5.72;;
19173;SDS011;9719;49.322;8.536;2022-10-28T20:42:26;6.38;;;4.65;;
19173;SDS011;9719;49.322;8.536;2022-10-28T20:47:28;10.95;;;5.53;;
19173;SDS011;9719;49.322;8.536;2022-10-28T20:52:31;9.55;;;4.93;;
19173;SDS011;9719;49.322;8.536;2022-10-28T20:57:34;9.63;;;5.22;;
19173;SDS011;9719;49.322;8.536;2022-10-28T21:02:36;5.72;;;3.70;;
19173;SDS011;9719;49.322;8.536;2022-10-28T21:07:39;4.40;;;3.50;;
19173;SDS011;9719;49.322;8.536;2022-10-28T21:12:42;7.97;;;3.90;;
19173;SDS011;9719;49.322;8.536;2022-10-28T21:17:44;5.18;;;4.22;;
19173;SDS011;9719;49.322;8.536;2022-10-28T21:22:46;9.05;;;4.68;;
19173;SDS011;9719;49.322;8.536;2022-10-28T21:27:50;8.25;;;3.88;;
19173;SDS011;9719;49.322;8.536;2022-10-28T21:32:52;9.45;;;4.18;;
19173;SDS011;9719;49.322;8.536;2022-10-28T21:37:54;6.53;;;3.83;;
19173;SDS011;9719;49.322;8.536;2022-10-28T21:42:58;9.30;;;4.65;;
19173;SDS011;9719;49.322;8.536;2022-10-28T21:48:00;7.55;;;5.10;;
19173;SDS011;9719;49.322;8.536;2022-10-28T21:53:02;5.78;;;4.65;;
19173;SDS011;9719;49.322;8.536;2022-10-28T21:58:06;5.20;;;3.97;;
19173;SDS011;9719;49.322;8.536;2022-10-28T22:03:08;5.50;;;3.92;;
19173;SDS011;9719;49.322;8.536;2022-10-28T22:08:11;6.10;;;4.50;;
19173;SDS011;9719;49.322;8.536;2022-10-28T22:13:14;5.85;;;3.67;;
19173;SDS011;9719;49.322;8.536;2022-10-28T22:18:16;6.97;;;4.78;;
19173;SDS011;9719;49.322;8.536;2022-10-28T22:23:18;8.70;;;7.18;;
19173;SDS011;9719;49.322;8.536;2022-10-28T22:28:22;15.00;;;13.23;;
19173;SDS011;9719;49.322;8.536;2022-10-28T22:33:24;9.82;;;7.65;;
19173;SDS011;9719;49.322;8.536;2022-10-28T22:38:26;9.57;;;8.15;;
19173;SDS011;9719;49.322;8.536;2022-10-28T22:43:30;7.78;;;6.85;;
19173;SDS011;9719;49.322;8.536;2022-10-28T22:48:32;5.90;;;4.78;;
19173;SDS011;9719;49.322;8.536;2022-10-28T22:53:35;11.35;;;7.45;;
19173;SDS011;9719;49.322;8.536;2022-10-28T22:58:39;14.85;;;7.97;;
19173;SDS011;9719;49.322;8.536;2022-10-28T23:03:41;7.50;;;6.18;;
19173;SDS011;9719;49.322;8.536;2022-10-28T23:08:44;9.48;;;6.40;;
19173;SDS011;9719;49.322;8.536;2022-10-28T23:13:50;7.07;;;5.30;;
19173;SDS011;9719;49.322;8.536;2022-10-28T23:18:52;8.55;;;6.00;;
19173;SDS011;9719;49.322;8.536;2022-10-28T23:23:55;5.07;;;4.30;;
19173;SDS011;9719;49.322;8.536;2022-10-28T23:28:59;8.93;;;5.28;;
19173;SDS011;9719;49.322;8.536;2022-10-28T23:34:01;10.45;;;5.00;;
19173;SDS011;9719;49.322;8.536;2022-10-28T23:39:03;5.50;;;4.63;;
19173;SDS011;9719;49.322;8.536;2022-10-28T23:44:07;9.93;;;5.60;;
19173;SDS011;9719;49.322;8.536;2022-10-28T23:49:09;7.70;;;5.20;;
19173;SDS011;9719;49.322;8.536;2022-10-28T23:54:11;5.22;;;4.35;;
19173;SDS011;9719;49.322;8.536;2022-10-28T23:59:16;7.75;;;3.90;;
